sensor_id;sensor_type;location;lat;lon;timestamp;P1;durP1;ratioP1;P2;durP2;ratioP2
3491;SDS011;1760;52.480;13.422;2024-03-02T00:01:45;41.93;;;27.10;;
3491;SDS011;1760;52.480;13.422;2024-03-02T00:04:12;57.40;;;29.47;;
3491;SDS011;1760;52.480;13.422;2024-03-02T00:06:40;53.30;;;28.13;;
3491;SDS011;1760;52.480;13.422;2024-03-02T00:09:07;52.57;;;26.50;;
3491;SDS011;1760;52.480;13.422;2024-03-02T00:11:37;59.00;;;27.40;;
3491;SDS011;1760;52.480;13.422;2024-03-02T00:14:05;61.63;;;31.70;;
3491;SDS011;1760;52.480;13.422;2024-03-02T00:16:32;52.20;;;29.70;;
3491;SDS011;1760;52.480;13.422;2024-03-02T00:19:04;49.67;;;27.23;;
3491;SDS011;1760;52.480;13.422;2024-03-02T00:21:33;47.23;;;27.10;;
3491;SDS011;1760;52.480;13.422;2024-03-02T00:24:01;45.93;;;27.60;;
3491;SDS011;1760;52.480;13.422;2024-03-02T00:26:31;49.93;;;26.57;;
3491;SDS011;1760;52.480;13.422;2024-03-02T00:28:58;43.50;;;27.03;;
3491;SDS011;1760;52.480;13.422;2024-03-02T00:31:26;51.67;;;29.57;;
3491;SDS011;1760;52.480;13.422;2024-03-02T00:33:53;51.10;;;29.13;;
3491;SDS011;1760;52.480;13.422;2024-03-02T00:36:24;57.73;;;30.47;;
3491;SDS011;1760;52.480;13.422;2024-03-02T00:38:53;55.90;;;28.70;;
3491;SDS011;1760;52.480;13.422;2024-03-02T00:41:22;51.50;;;28.30;;
3491;SDS011;1760;52.480;13.422;2024-03-02T00:43:53;51.63;;;30.73;;
3491;SDS011;1760;52.480;13.422;2024-03-02T00:46:26;51.53;;;27.40;;
3491;SDS011;1760;52.480;13.422;2024-03-02T00:48:55;56.30;;;29.10;;
3491;SDS011;1760;52.480;13.422;2024-03-02T00:51:24;49.57;;;32.70;;
3491;SDS011;1760;52.480;13.422;2024-03-02T00:53:54;52.77;;;30.20;;
3491;SDS011;1760;52.480;13.422;2024-03-02T00:56:22;51.17;;;28.03;;
3491;SDS011;1760;52.480;13.422;2024-03-02T00:58:50;51.67;;;29.20;;
3491;SDS011;1760;52.480;13.422;2024-03-02T01:01:17;62.97;;;32.80;;
3491;SDS011;1760;52.480;13.422;2024-03-02T01:03:44;57.10;;;31.13;;
3491;SDS011;1760;52.480;13.422;2024-03-02T01:06:11;62.40;;;32.80;;
3491;SDS011;1760;52.480;13.422;2024-03-02T01:08:40;65.90;;;33.37;;
3491;SDS011;1760;52.480;13.422;2024-03-02T01:11:07;52.97;;;32.67;;
3491;SDS011;1760;52.480;13.422;2024-03-02T01:13:34;52.77;;;28.27;;
3491;SDS011;1760;52.480;13.422;2024-03-02T01:16:01;53.17;;;30.37;;
3491;SDS011;1760;52.480;13.422;2024-03-02T01:18:29;48.00;;;28.60;;
3491;SDS011;1760;52.480;13.422;2024-03-02T01:20:56;53.80;;;29.27;;
3491;SDS011;1760;52.480;13.422;2024-03-02T01:23:24;46.90;;;28.00;;
3491;SDS011;1760;52.480;13.422;2024-03-02T01:25:52;58.77;;;31.00;;
3491;SDS011;1760;52.480;13.422;2024-03-02T01:28:20;46.40;;;27.57;;
3491;SDS011;1760;52.480;13.422;2024-03-02T01:30:47;57.60;;;30.33;;
3491;SDS011;1760;52.480;13.422;2024-03-02T01:33:15;65.47;;;32.70;;
3491;SDS011;1760;52.480;13.422;2024-03-02T01:35:42;48.13;;;26.40;;
3491;SDS011;1760;52.480;13.422;2024-03-02T01:38:09;52.93;;;29.60;;
3491;SDS011;1760;52.480;13.422;2024-03-02T01:40:36;60.70;;;32.27;;
3491;SDS011;1760;52.480;13.422;2024-03-02T01:43:05;53.23;;;29.40;;
3491;SDS011;1760;52.480;13.422;2024-03-02T01:45:32;44.83;;;28.57;;
3491;SDS011;1760;52.480;13.422;2024-03-02T01:48:00;51.73;;;28.70;;
3491;SDS011;1760;52.480;13.422;2024-03-02T01:50:28;47.20;;;29.70;;
3491;SDS011;1760;52.480;13.422;2024-03-02T01:52:55;58.40;;;30.43;;
3491;SDS011;1760;52.480;13.422;2024-03-02T01:55:22;52.80;;;29.77;;
3491;SDS011;1760;52.480;13.422;2024-03-02T01:57:50;49.83;;;26.57;;
3491;SDS011;1760;52.480;13.422;2024-03-02T02:00:20;52.53;;;31.50;;
3491;SDS011;1760;52.480;13.422;2024-03-02T02:02:49;51.60;;;29.50;;
3491;SDS011;1760;52.480;13.422;2024-03-02T02:05:17;51.90;;;30.93;;
3491;SDS011;1760;52.480;13.422;2024-03-02T02:07:44;65.30;;;29.17;;
3491;SDS011;1760;52.480;13.422;2024-03-02T02:10:11;54.27;;;30.03;;
3491;SDS011;1760;52.480;13.422;2024-03-02T02:12:39;51.83;;;30.97;;
3491;SDS011;1760;52.480;13.422;2024-03-02T02:28:29;44.57;;;26.90;;
3491;SDS011;1760;52.480;13.422;2024-03-02T02:30:56;58.53;;;31.70;;
3491;SDS011;1760;52.480;13.422;2024-03-02T02:33:25;50.90;;;30.83;;
3491;SDS011;1760;52.480;13.422;2024-03-02T02:35:52;53.33;;;31.30;;
3491;SDS011;1760;52.480;13.422;2024-03-02T02:38:18;53.63;;;29.93;;
3491;SDS011;1760;52.480;13.422;2024-03-02T02:40:45;62.27;;;30.57;;
3491;SDS011;1760;52.480;13.422;2024-03-02T02:43:13;53.00;;;32.80;;
3491;SDS011;1760;52.480;13.422;2024-03-02T02:45:41;53.33;;;32.40;;
3491;SDS011;1760;52.480;13.422;2024-03-02T02:48:08;60.03;;;31.00;;
3491;SDS011;1760;52.480;13.422;2024-03-02T02:50:34;58.63;;;29.30;;
3491;SDS011;1760;52.480;13.422;2024-03-02T02:53:01;54.13;;;28.73;;
3491;SDS011;1760;52.480;13.422;2024-03-02T02:55:28;51.47;;;29.87;;
3491;SDS011;1760;52.480;13.422;2024-03-02T02:57:55;46.30;;;27.53;;
3491;SDS011;1760;52.480;13.422;2024-03-02T03:00:22;54.43;;;31.53;;
3491;SDS011;1760;52.480;13.422;2024-03-02T03:02:50;50.47;;;27.43;;
3491;SDS011;1760;52.480;13.422;2024-03-02T03:05:17;54.13;;;29.13;;
3491;SDS011;1760;52.480;13.422;2024-03-02T03:07:45;51.00;;;27.93;;
3491;SDS011;1760;52.480;13.422;2024-03-02T03:10:13;58.77;;;27.53;;
3491;SDS011;1760;52.480;13.422;2024-03-02T03:12:40;53.10;;;29.67;;
3491;SDS011;1760;52.480;13.422;2024-03-02T03:15:08;56.57;;;29.17;;
3491;SDS011;1760;52.480;13.422;2024-03-02T03:17:36;55.57;;;30.00;;
3491;SDS011;1760;52.480;13.422;2024-03-02T03:20:05;45.00;;;27.97;;
3491;SDS011;1760;52.480;13.422;2024-03-02T03:22:35;55.20;;;27.87;;
3491;SDS011;1760;52.480;13.422;2024-03-02T03:25:02;48.13;;;28.67;;
3491;SDS011;1760;52.480;13.422;2024-03-02T03:27:30;49.07;;;26.97;;
3491;SDS011;1760;52.480;13.422;2024-03-02T03:29:57;41.83;;;25.97;;
3491;SDS011;1760;52.480;13.422;2024-03-02T03:32:24;47.70;;;28.80;;
3491;SDS011;1760;52.480;13.422;2024-03-02T03:34:51;43.20;;;26.67;;
3491;SDS011;1760;52.480;13.422;2024-03-02T03:37:19;50.50;;;26.80;;
3491;SDS011;1760;52.480;13.422;2024-03-02T03:39:46;45.80;;;25.77;;
3491;SDS011;1760;52.480;13.422;2024-03-02T03:42:12;52.13;;;26.07;;
3491;SDS011;1760;52.480;13.422;2024-03-02T03:44:39;46.30;;;25.13;;
3491;SDS011;1760;52.480;13.422;2024-03-02T03:47:06;53.27;;;30.27;;
3491;SDS011;1760;52.480;13.422;2024-03-02T03:49:33;44.70;;;26.63;;
3491;SDS011;1760;52.480;13.422;2024-03-02T03:52:00;41.23;;;24.23;;
3491;SDS011;1760;52.480;13.422;2024-03-02T03:54:28;49.70;;;28.83;;
3491;SDS011;1760;52.480;13.422;2024-03-02T03:56:55;47.37;;;24.80;;
3491;SDS011;1760;52.480;13.422;2024-03-02T03:59:22;43.63;;;25.63;;
3491;SDS011;1760;52.480;13.422;2024-03-02T04:01:49;50.83;;;27.90;;
3491;SDS011;1760;52.480;13.422;2024-03-02T04:04:16;43.00;;;24.60;;
3491;SDS011;1760;52.480;13.422;2024-03-02T04:06:42;44.03;;;24.50;;
3491;SDS011;1760;52.480;13.422;2024-03-02T04:09:09;48.73;;;25.53;;
3491;SDS011;1760;52.480;13.422;2024-03-02T04:11:38;43.83;;;27.27;;
3491;SDS011;1760;52.480;13.422;2024-03-02T04:14:04;44.40;;;25.40;;
3491;SDS011;1760;52.480;13.422;2024-03-02T04:16:32;48.23;;;27.90;;
3491;SDS011;1760;52.480;13.422;2024-03-02T04:18:59;42.77;;;23.77;;
3491;SDS011;1760;52.480;13.422;2024-03-02T04:21:26;44.63;;;26.20;;
3491;SDS011;1760;52.480;13.422;2024-03-02T04:23:53;46.50;;;24.00;;
3491;SDS011;1760;52.480;13.422;2024-03-02T04:26:22;40.07;;;24.67;;
3491;SDS011;1760;52.480;13.422;2024-03-02T04:28:51;46.23;;;26.40;;
3491;SDS011;1760;52.480;13.422;2024-03-02T04:31:18;41.03;;;23.47;;
3491;SDS011;1760;52.480;13.422;2024-03-02T04:33:45;37.43;;;22.80;;
3491;SDS011;1760;52.480;13.422;2024-03-02T04:36:12;50.27;;;23.97;;
3491;SDS011;1760;52.480;13.422;2024-03-02T04:38:39;41.90;;;22.90;;
3491;SDS011;1760;52.480;13.422;2024-03-02T04:41:06;35.67;;;22.90;;
3491;SDS011;1760;52.480;13.422;2024-03-02T04:43:33;45.87;;;24.30;;
3491;SDS011;1760;52.480;13.422;2024-03-02T04:46:05;41.50;;;24.57;;
3491;SDS011;1760;52.480;13.422;2024-03-02T04:48:33;42.43;;;24.90;;
3491;SDS011;1760;52.480;13.422;2024-03-02T04:51:00;38.33;;;22.40;;
3491;SDS011;1760;52.480;13.422;2024-03-02T04:53:27;45.23;;;24.73;;
3491;SDS011;1760;52.480;13.422;2024-03-02T04:55:53;38.83;;;24.53;;
3491;SDS011;1760;52.480;13.422;2024-03-02T04:58:38;36.03;;;23.17;;
3491;SDS011;1760;52.480;13.422;2024-03-02T05:01:06;45.87;;;24.87;;
3491;SDS011;1760;52.480;13.422;2024-03-02T05:03:33;37.50;;;22.57;;
3491;SDS011;1760;52.480;13.422;2024-03-02T05:06:00;36.33;;;22.10;;
3491;SDS011;1760;52.480;13.422;2024-03-02T05:08:26;34.30;;;22.43;;
3491;SDS011;1760;52.480;13.422;2024-03-02T05:10:53;36.40;;;21.53;;
3491;SDS011;1760;52.480;13.422;2024-03-02T05:13:40;40.90;;;24.37;;
3491;SDS011;1760;52.480;13.422;2024-03-02T05:16:07;44.33;;;24.00;;
3491;SDS011;1760;52.480;13.422;2024-03-02T05:18:34;38.37;;;23.73;;
3491;SDS011;1760;52.480;13.422;2024-03-02T05:21:03;39.10;;;25.73;;
3491;SDS011;1760;52.480;13.422;2024-03-02T05:23:30;31.17;;;20.50;;
3491;SDS011;1760;52.480;13.422;2024-03-02T05:25:57;40.70;;;23.70;;
3491;SDS011;1760;52.480;13.422;2024-03-02T05:28:24;36.33;;;23.23;;
3491;SDS011;1760;52.480;13.422;2024-03-02T05:30:51;39.63;;;25.50;;
3491;SDS011;1760;52.480;13.422;2024-03-02T05:33:19;39.57;;;24.27;;
3491;SDS011;1760;52.480;13.422;2024-03-02T05:35:47;48.13;;;28.27;;
3491;SDS011;1760;52.480;13.422;2024-03-02T05:38:15;44.03;;;27.10;;
3491;SDS011;1760;52.480;13.422;2024-03-02T05:40:42;47.53;;;26.57;;
3491;SDS011;1760;52.480;13.422;2024-03-02T05:43:08;49.37;;;27.53;;
3491;SDS011;1760;52.480;13.422;2024-03-02T05:45:35;45.47;;;25.47;;
3491;SDS011;1760;52.480;13.422;2024-03-02T05:48:02;43.57;;;25.60;;
3491;SDS011;1760;52.480;13.422;2024-03-02T05:50:34;43.03;;;26.63;;
3491;SDS011;1760;52.480;13.422;2024-03-02T05:53:01;47.33;;;27.60;;
3491;SDS011;1760;52.480;13.422;2024-03-02T05:55:28;42.67;;;24.90;;
3491;SDS011;1760;52.480;13.422;2024-03-02T05:57:56;56.80;;;30.10;;
3491;SDS011;1760;52.480;13.422;2024-03-02T06:00:40;43.13;;;25.47;;
3491;SDS011;1760;52.480;13.422;2024-03-02T06:03:07;42.43;;;25.03;;
3491;SDS011;1760;52.480;13.422;2024-03-02T06:05:35;44.33;;;25.97;;
3491;SDS011;1760;52.480;13.422;2024-03-02T06:08:02;51.60;;;27.27;;
3491;SDS011;1760;52.480;13.422;2024-03-02T06:10:30;46.23;;;29.13;;
3491;SDS011;1760;52.480;13.422;2024-03-02T06:12:56;46.03;;;28.67;;
3491;SDS011;1760;52.480;13.422;2024-03-02T06:15:24;48.90;;;28.43;;
3491;SDS011;1760;52.480;13.422;2024-03-02T06:17:51;48.83;;;29.00;;
3491;SDS011;1760;52.480;13.422;2024-03-02T06:20:18;53.47;;;27.63;;
3491;SDS011;1760;52.480;13.422;2024-03-02T06:22:46;46.30;;;26.57;;
3491;SDS011;1760;52.480;13.422;2024-03-02T06:25:13;45.47;;;26.30;;
3491;SDS011;1760;52.480;13.422;2024-03-02T06:27:40;51.40;;;27.77;;
3491;SDS011;1760;52.480;13.422;2024-03-02T06:30:07;49.73;;;26.47;;
3491;SDS011;1760;52.480;13.422;2024-03-02T06:32:34;51.10;;;28.13;;
3491;SDS011;1760;52.480;13.422;2024-03-02T06:35:01;53.50;;;29.03;;
3491;SDS011;1760;52.480;13.422;2024-03-02T06:37:37;51.40;;;30.00;;
3491;SDS011;1760;52.480;13.422;2024-03-02T06:40:07;52.10;;;28.17;;
3491;SDS011;1760;52.480;13.422;2024-03-02T06:42:34;45.87;;;27.37;;
3491;SDS011;1760;52.480;13.422;2024-03-02T06:45:07;54.27;;;28.33;;
3491;SDS011;1760;52.480;13.422;2024-03-02T06:47:34;54.50;;;27.87;;
3491;SDS011;1760;52.480;13.422;2024-03-02T06:50:01;57.00;;;29.03;;
3491;SDS011;1760;52.480;13.422;2024-03-02T06:52:28;53.97;;;28.40;;
3491;SDS011;1760;52.480;13.422;2024-03-02T06:54:55;48.97;;;28.63;;
3491;SDS011;1760;52.480;13.422;2024-03-02T06:57:23;53.83;;;29.33;;
3491;SDS011;1760;52.480;13.422;2024-03-02T06:59:50;57.47;;;27.67;;
3491;SDS011;1760;52.480;13.422;2024-03-02T07:02:19;51.37;;;28.47;;
3491;SDS011;1760;52.480;13.422;2024-03-02T07:04:48;53.77;;;30.37;;
3491;SDS011;1760;52.480;13.422;2024-03-02T07:07:16;70.17;;;30.20;;
3491;SDS011;1760;52.480;13.422;2024-03-02T07:09:43;60.60;;;32.20;;
3491;SDS011;1760;52.480;13.422;2024-03-02T07:12:09;55.50;;;30.07;;
3491;SDS011;1760;52.480;13.422;2024-03-02T07:14:37;57.27;;;30.40;;
3491;SDS011;1760;52.480;13.422;2024-03-02T07:17:21;50.47;;;28.97;;
3491;SDS011;1760;52.480;13.422;2024-03-02T07:19:48;51.90;;;29.43;;
3491;SDS011;1760;52.480;13.422;2024-03-02T07:22:15;48.80;;;29.63;;
3491;SDS011;1760;52.480;13.422;2024-03-02T07:24:43;50.03;;;28.80;;
3491;SDS011;1760;52.480;13.422;2024-03-02T07:27:10;39.40;;;26.00;;
3491;SDS011;1760;52.480;13.422;2024-03-02T07:29:39;50.07;;;27.30;;
3491;SDS011;1760;52.480;13.422;2024-03-02T07:32:06;52.67;;;28.67;;
3491;SDS011;1760;52.480;13.422;2024-03-02T07:34:34;47.80;;;27.73;;
3491;SDS011;1760;52.480;13.422;2024-03-02T07:37:02;46.13;;;25.97;;
3491;SDS011;1760;52.480;13.422;2024-03-02T07:39:29;45.07;;;25.47;;
3491;SDS011;1760;52.480;13.422;2024-03-02T07:41:57;53.10;;;29.23;;
3491;SDS011;1760;52.480;13.422;2024-03-02T07:44:24;45.10;;;27.23;;
3491;SDS011;1760;52.480;13.422;2024-03-02T07:46:54;53.23;;;27.80;;
3491;SDS011;1760;52.480;13.422;2024-03-02T07:49:21;55.57;;;27.80;;
3491;SDS011;1760;52.480;13.422;2024-03-02T07:51:48;47.70;;;26.70;;
3491;SDS011;1760;52.480;13.422;2024-03-02T07:54:15;48.97;;;26.83;;
3491;SDS011;1760;52.480;13.422;2024-03-02T07:56:42;50.00;;;28.60;;
3491;SDS011;1760;52.480;13.422;2024-03-02T07:59:09;45.43;;;27.20;;
3491;SDS011;1760;52.480;13.422;2024-03-02T08:01:36;48.93;;;30.10;;
3491;SDS011;1760;52.480;13.422;2024-03-02T08:04:04;53.93;;;30.50;;
3491;SDS011;1760;52.480;13.422;2024-03-02T08:06:32;52.63;;;26.47;;
3491;SDS011;1760;52.480;13.422;2024-03-02T08:09:00;52.27;;;29.43;;
3491;SDS011;1760;52.480;13.422;2024-03-02T08:11:30;44.30;;;27.43;;
3491;SDS011;1760;52.480;13.422;2024-03-02T08:13:57;48.43;;;28.90;;
3491;SDS011;1760;52.480;13.422;2024-03-02T08:16:24;56.50;;;28.43;;
3491;SDS011;1760;52.480;13.422;2024-03-02T08:18:51;61.27;;;31.13;;
3491;SDS011;1760;52.480;13.422;2024-03-02T08:21:20;52.83;;;27.17;;
3491;SDS011;1760;52.480;13.422;2024-03-02T08:23:47;48.83;;;27.70;;
3491;SDS011;1760;52.480;13.422;2024-03-02T08:26:14;48.40;;;27.37;;
3491;SDS011;1760;52.480;13.422;2024-03-02T08:28:41;53.73;;;27.50;;
3491;SDS011;1760;52.480;13.422;2024-03-02T08:31:08;51.53;;;28.60;;
3491;SDS011;1760;52.480;13.422;2024-03-02T08:33:35;46.80;;;25.30;;
3491;SDS011;1760;52.480;13.422;2024-03-02T08:36:02;50.20;;;26.73;;
3491;SDS011;1760;52.480;13.422;2024-03-02T08:38:30;43.03;;;25.10;;
3491;SDS011;1760;52.480;13.422;2024-03-02T08:40:57;41.27;;;28.07;;
3491;SDS011;1760;52.480;13.422;2024-03-02T08:43:24;51.50;;;27.20;;
3491;SDS011;1760;52.480;13.422;2024-03-02T08:45:51;40.13;;;25.17;;
3491;SDS011;1760;52.480;13.422;2024-03-02T08:48:18;58.97;;;30.77;;
3491;SDS011;1760;52.480;13.422;2024-03-02T08:50:46;40.97;;;26.80;;
3491;SDS011;1760;52.480;13.422;2024-03-02T08:53:15;45.87;;;24.60;;
3491;SDS011;1760;52.480;13.422;2024-03-02T08:55:44;42.50;;;26.10;;
3491;SDS011;1760;52.480;13.422;2024-03-02T08:58:12;43.43;;;24.87;;
3491;SDS011;1760;52.480;13.422;2024-03-02T09:00:39;48.43;;;25.07;;
3491;SDS011;1760;52.480;13.422;2024-03-02T09:03:06;53.53;;;26.83;;
3491;SDS011;1760;52.480;13.422;2024-03-02T09:05:33;53.97;;;26.50;;
3491;SDS011;1760;52.480;13.422;2024-03-02T09:08:00;50.50;;;26.17;;
3491;SDS011;1760;52.480;13.422;2024-03-02T09:10:28;41.13;;;25.47;;
3491;SDS011;1760;52.480;13.422;2024-03-02T09:12:57;50.47;;;26.70;;
3491;SDS011;1760;52.480;13.422;2024-03-02T09:15:24;44.47;;;24.83;;
3491;SDS011;1760;52.480;13.422;2024-03-02T09:17:51;46.23;;;25.20;;
3491;SDS011;1760;52.480;13.422;2024-03-02T09:20:18;48.20;;;25.73;;
3491;SDS011;1760;52.480;13.422;2024-03-02T09:22:45;48.00;;;25.97;;
3491;SDS011;1760;52.480;13.422;2024-03-02T09:25:13;46.70;;;25.80;;
3491;SDS011;1760;52.480;13.422;2024-03-02T09:27:41;43.23;;;24.80;;
3491;SDS011;1760;52.480;13.422;2024-03-02T09:30:10;43.70;;;23.13;;
3491;SDS011;1760;52.480;13.422;2024-03-02T09:32:38;46.53;;;24.07;;
3491;SDS011;1760;52.480;13.422;2024-03-02T09:35:05;39.53;;;23.90;;
3491;SDS011;1760;52.480;13.422;2024-03-02T09:37:34;40.03;;;23.00;;
3491;SDS011;1760;52.480;13.422;2024-03-02T09:40:01;44.83;;;24.40;;
3491;SDS011;1760;52.480;13.422;2024-03-02T09:42:28;41.47;;;24.90;;
3491;SDS011;1760;52.480;13.422;2024-03-02T09:44:55;43.20;;;23.17;;
3491;SDS011;1760;52.480;13.422;2024-03-02T09:47:24;48.13;;;24.33;;
3491;SDS011;1760;52.480;13.422;2024-03-02T09:49:51;42.57;;;23.80;;
3491;SDS011;1760;52.480;13.422;2024-03-02T09:52:20;45.70;;;25.37;;
3491;SDS011;1760;52.480;13.422;2024-03-02T09:54:51;42.87;;;24.07;;
3491;SDS011;1760;52.480;13.422;2024-03-02T09:57:21;36.80;;;22.67;;
3491;SDS011;1760;52.480;13.422;2024-03-02T09:59:48;41.40;;;24.30;;
3491;SDS011;1760;52.480;13.422;2024-03-02T10:02:15;49.33;;;25.67;;
3491;SDS011;1760;52.480;13.422;2024-03-02T10:04:45;38.77;;;23.63;;
3491;SDS011;1760;52.480;13.422;2024-03-02T10:07:12;37.90;;;20.90;;
3491;SDS011;1760;52.480;13.422;2024-03-02T10:09:40;37.47;;;22.47;;
3491;SDS011;1760;52.480;13.422;2024-03-02T10:12:07;35.67;;;20.87;;
3491;SDS011;1760;52.480;13.422;2024-03-02T10:14:36;34.63;;;21.57;;
3491;SDS011;1760;52.480;13.422;2024-03-02T10:17:04;35.50;;;19.47;;
3491;SDS011;1760;52.480;13.422;2024-03-02T10:19:31;33.70;;;18.83;;
3491;SDS011;1760;52.480;13.422;2024-03-02T10:22:01;31.70;;;19.50;;
3491;SDS011;1760;52.480;13.422;2024-03-02T10:24:35;31.83;;;19.40;;
3491;SDS011;1760;52.480;13.422;2024-03-02T10:27:06;36.80;;;19.77;;
3491;SDS011;1760;52.480;13.422;2024-03-02T10:29:38;29.60;;;19.83;;
3491;SDS011;1760;52.480;13.422;2024-03-02T10:32:08;30.47;;;19.17;;
3491;SDS011;1760;52.480;13.422;2024-03-02T10:34:37;29.37;;;18.10;;
3491;SDS011;1760;52.480;13.422;2024-03-02T10:37:07;30.83;;;18.27;;
3491;SDS011;1760;52.480;13.422;2024-03-02T10:39:34;27.47;;;17.40;;
3491;SDS011;1760;52.480;13.422;2024-03-02T10:42:01;28.83;;;17.50;;
3491;SDS011;1760;52.480;13.422;2024-03-02T10:44:30;27.23;;;16.87;;
3491;SDS011;1760;52.480;13.422;2024-03-02T10:46:59;24.17;;;16.00;;
3491;SDS011;1760;52.480;13.422;2024-03-02T10:49:27;21.87;;;15.37;;
3491;SDS011;1760;52.480;13.422;2024-03-02T10:51:58;26.20;;;15.30;;
3491;SDS011;1760;52.480;13.422;2024-03-02T10:54:27;32.30;;;19.47;;
3491;SDS011;1760;52.480;13.422;2024-03-02T10:56:55;27.20;;;16.63;;
3491;SDS011;1760;52.480;13.422;2024-03-02T10:59:27;30.50;;;17.90;;
3491;SDS011;1760;52.480;13.422;2024-03-02T11:01:56;27.43;;;16.37;;
3491;SDS011;1760;52.480;13.422;2024-03-02T11:04:24;24.60;;;14.93;;
3491;SDS011;1760;52.480;13.422;2024-03-02T11:06:54;23.10;;;15.10;;
3491;SDS011;1760;52.480;13.422;2024-03-02T11:09:27;27.77;;;16.20;;
3491;SDS011;1760;52.480;13.422;2024-03-02T11:11:59;35.60;;;20.10;;
3491;SDS011;1760;52.480;13.422;2024-03-02T11:14:30;31.50;;;17.83;;
3491;SDS011;1760;52.480;13.422;2024-03-02T11:16:58;28.53;;;16.47;;
3491;SDS011;1760;52.480;13.422;2024-03-02T11:19:26;26.60;;;17.00;;
3491;SDS011;1760;52.480;13.422;2024-03-02T11:21:54;24.77;;;16.00;;
3491;SDS011;1760;52.480;13.422;2024-03-02T11:24:30;24.03;;;16.63;;
3491;SDS011;1760;52.480;13.422;2024-03-02T11:27:02;27.10;;;15.97;;
3491;SDS011;1760;52.480;13.422;2024-03-02T11:32:19;28.00;;;15.60;;
3491;SDS011;1760;52.480;13.422;2024-03-02T11:34:48;23.90;;;15.73;;
3491;SDS011;1760;52.480;13.422;2024-03-02T11:37:16;24.83;;;14.53;;
3491;SDS011;1760;52.480;13.422;2024-03-02T11:39:45;31.27;;;15.20;;
3491;SDS011;1760;52.480;13.422;2024-03-02T11:42:13;25.43;;;15.83;;
3491;SDS011;1760;52.480;13.422;2024-03-02T11:44:42;25.43;;;14.93;;
3491;SDS011;1760;52.480;13.422;2024-03-02T11:47:11;24.37;;;16.03;;
3491;SDS011;1760;52.480;13.422;2024-03-02T11:49:42;29.27;;;16.90;;
3491;SDS011;1760;52.480;13.422;2024-03-02T11:52:11;28.20;;;15.63;;
3491;SDS011;1760;52.480;13.422;2024-03-02T11:54:39;23.53;;;15.23;;
3491;SDS011;1760;52.480;13.422;2024-03-02T11:57:13;24.40;;;15.53;;
3491;SDS011;1760;52.480;13.422;2024-03-02T11:59:41;27.20;;;16.40;;
3491;SDS011;1760;52.480;13.422;2024-03-02T12:02:12;32.30;;;16.53;;
3491;SDS011;1760;52.480;13.422;2024-03-02T12:04:44;19.23;;;14.00;;
3491;SDS011;1760;52.480;13.422;2024-03-02T12:07:13;26.13;;;15.40;;
3491;SDS011;1760;52.480;13.422;2024-03-02T12:09:46;23.57;;;14.57;;
3491;SDS011;1760;52.480;13.422;2024-03-02T12:12:14;38.60;;;19.60;;
3491;SDS011;1760;52.480;13.422;2024-03-02T12:14:49;26.33;;;16.60;;
3491;SDS011;1760;52.480;13.422;2024-03-02T12:17:17;31.30;;;17.70;;
3491;SDS011;1760;52.480;13.422;2024-03-02T12:19:44;26.40;;;16.40;;
3491;SDS011;1760;52.480;13.422;2024-03-02T12:22:11;30.00;;;14.30;;
3491;SDS011;1760;52.480;13.422;2024-03-02T12:24:38;21.70;;;14.57;;
3491;SDS011;1760;52.480;13.422;2024-03-02T12:27:05;22.60;;;13.83;;
3491;SDS011;1760;52.480;13.422;2024-03-02T12:29:34;24.10;;;14.57;;
3491;SDS011;1760;52.480;13.422;2024-03-02T12:32:01;20.53;;;13.97;;
3491;SDS011;1760;52.480;13.422;2024-03-02T12:34:28;20.20;;;14.03;;
3491;SDS011;1760;52.480;13.422;2024-03-02T12:36:55;29.27;;;15.70;;
3491;SDS011;1760;52.480;13.422;2024-03-02T12:39:22;27.37;;;15.33;;
3491;SDS011;1760;52.480;13.422;2024-03-02T12:41:49;22.33;;;15.03;;
3491;SDS011;1760;52.480;13.422;2024-03-02T12:44:16;24.20;;;14.87;;
3491;SDS011;1760;52.480;13.422;2024-03-02T12:46:45;27.63;;;16.20;;
3491;SDS011;1760;52.480;13.422;2024-03-02T12:49:13;24.80;;;14.03;;
3491;SDS011;1760;52.480;13.422;2024-03-02T12:51:41;25.03;;;14.90;;
3491;SDS011;1760;52.480;13.422;2024-03-02T12:54:09;22.83;;;14.70;;
3491;SDS011;1760;52.480;13.422;2024-03-02T12:56:52;26.60;;;16.53;;
3491;SDS011;1760;52.480;13.422;2024-03-02T12:59:21;27.07;;;15.57;;
3491;SDS011;1760;52.480;13.422;2024-03-02T13:01:53;23.27;;;14.83;;
3491;SDS011;1760;52.480;13.422;2024-03-02T13:04:22;30.00;;;14.57;;
3491;SDS011;1760;52.480;13.422;2024-03-02T13:06:50;23.63;;;14.27;;
3491;SDS011;1760;52.480;13.422;2024-03-02T13:09:18;18.90;;;13.07;;
3491;SDS011;1760;52.480;13.422;2024-03-02T13:11:45;20.30;;;14.30;;
3491;SDS011;1760;52.480;13.422;2024-03-02T13:14:12;22.80;;;14.07;;
3491;SDS011;1760;52.480;13.422;2024-03-02T13:16:39;19.00;;;12.00;;
3491;SDS011;1760;52.480;13.422;2024-03-02T13:19:08;20.73;;;13.17;;
3491;SDS011;1760;52.480;13.422;2024-03-02T13:21:35;21.73;;;12.70;;
3491;SDS011;1760;52.480;13.422;2024-03-02T13:24:02;19.57;;;13.23;;
3491;SDS011;1760;52.480;13.422;2024-03-02T13:26:30;30.40;;;13.80;;
3491;SDS011;1760;52.480;13.422;2024-03-02T13:28:57;23.90;;;13.23;;
3491;SDS011;1760;52.480;13.422;2024-03-02T13:31:23;22.43;;;12.27;;
3491;SDS011;1760;52.480;13.422;2024-03-02T13:33:50;23.60;;;14.63;;
3491;SDS011;1760;52.480;13.422;2024-03-02T13:36:19;20.53;;;13.40;;
3491;SDS011;1760;52.480;13.422;2024-03-02T13:38:45;20.70;;;12.30;;
3491;SDS011;1760;52.480;13.422;2024-03-02T13:41:12;21.60;;;14.00;;
3491;SDS011;1760;52.480;13.422;2024-03-02T13:43:39;23.73;;;14.17;;
3491;SDS011;1760;52.480;13.422;2024-03-02T13:46:06;23.00;;;12.03;;
3491;SDS011;1760;52.480;13.422;2024-03-02T13:48:34;20.30;;;12.30;;
3491;SDS011;1760;52.480;13.422;2024-03-02T13:51:01;20.03;;;12.53;;
3491;SDS011;1760;52.480;13.422;2024-03-02T13:53:30;23.87;;;13.90;;
3491;SDS011;1760;52.480;13.422;2024-03-02T13:55:57;21.93;;;12.70;;
3491;SDS011;1760;52.480;13.422;2024-03-02T13:58:24;21.20;;;13.43;;
3491;SDS011;1760;52.480;13.422;2024-03-02T14:00:51;23.77;;;13.07;;
3491;SDS011;1760;52.480;13.422;2024-03-02T14:03:18;19.60;;;12.90;;
3491;SDS011;1760;52.480;13.422;2024-03-02T14:05:45;18.50;;;12.00;;
3491;SDS011;1760;52.480;13.422;2024-03-02T14:08:13;17.97;;;11.70;;
3491;SDS011;1760;52.480;13.422;2024-03-02T14:10:42;17.10;;;11.57;;
3491;SDS011;1760;52.480;13.422;2024-03-02T14:13:09;24.47;;;14.20;;
3491;SDS011;1760;52.480;13.422;2024-03-02T14:15:35;22.50;;;8.70;;
3491;SDS011;1760;52.480;13.422;2024-03-02T14:18:04;16.70;;;10.40;;
3491;SDS011;1760;52.480;13.422;2024-03-02T14:20:31;16.73;;;10.43;;
3491;SDS011;1760;52.480;13.422;2024-03-02T14:22:58;17.13;;;11.27;;
3491;SDS011;1760;52.480;13.422;2024-03-02T14:25:26;15.47;;;10.27;;
3491;SDS011;1760;52.480;13.422;2024-03-02T14:27:56;16.20;;;11.40;;
3491;SDS011;1760;52.480;13.422;2024-03-02T14:30:23;20.17;;;12.60;;
3491;SDS011;1760;52.480;13.422;2024-03-02T14:32:51;24.10;;;12.13;;
3491;SDS011;1760;52.480;13.422;2024-03-02T14:35:17;20.40;;;12.20;;
3491;SDS011;1760;52.480;13.422;2024-03-02T14:37:45;19.77;;;11.67;;
3491;SDS011;1760;52.480;13.422;2024-03-02T14:40:12;22.23;;;12.00;;
3491;SDS011;1760;52.480;13.422;2024-03-02T14:42:39;16.60;;;11.30;;
3491;SDS011;1760;52.480;13.422;2024-03-02T14:45:08;17.60;;;11.57;;
3491;SDS011;1760;52.480;13.422;2024-03-02T14:47:35;19.97;;;11.60;;
3491;SDS011;1760;52.480;13.422;2024-03-02T14:50:02;21.53;;;12.90;;
3491;SDS011;1760;52.480;13.422;2024-03-02T14:52:31;25.60;;;13.93;;
3491;SDS011;1760;52.480;13.422;2024-03-02T14:54:58;17.07;;;11.70;;